Time;durP1;ratioP1;P1;durP2;ratioP2;P2;SDS_P1;SDS_P2;PMS_P1;PMS_P2;Temp;Humidity;BMP_temperature;BMP_pressure;BME280_temperature;BME280_humidity;BME280_pressure;Samples;Min_cycle;Max_cycle;Signal;HPM_P1;HPM_P2
2022/01/12 00:02:03;;;;;;;76.68;32.05;;;5.10;99.90;;;;;;5022489;28;20045;-82
2022/01/12 00:04:28;;;;;;;99.03;34.22;;;3.20;99.90;;;;;;5035706;28;20041;-82
2022/01/12 00:06:54;;;;;;;79.60;32.35;;;3.20;99.90;;;;;;5033713;28;20563;-82
2022/01/12 00:09:19;;;;;;;100.50;35.63;;;3.10;99.90;;;;;;5019345;28;20429;-88
2022/01/12 00:11:45;;;;;;;93.88;33.58;;;3.10;99.90;;;;;;5010124;28;20523;-84
2022/01/12 00:14:14;;;;;;;97.63;34.67;;;1.60;99.90;;;;;;5023138;28;20045;-90
2022/01/12 00:16:46;;;;;;;89.85;33.70;;;3.20;99.90;;;;;;4998798;28;20201;-90
2022/01/12 00:19:11;;;;;;;119.50;37.88;;;2.90;99.90;;;;;;5016044;28;20053;-87
2022/01/12 00:21:37;;;;;;;159.27;40.85;;;3.10;99.90;;;;;;5019711;28;20450;-90
2022/01/12 00:24:03;;;;;;;99.05;35.80;;;3.20;99.90;;;;;;5004386;28;20037;-88
2022/01/12 00:34:31;;;;;;;143.00;41.50;;;3.20;99.90;;;;;;5019680;28;20100;-88
2022/01/12 00:36:57;;;;;;;163.48;39.70;;;3.20;99.90;;;;;;5017742;28;20076;-85
2022/01/12 00:39:23;;;;;;;167.88;42.85;;;3.10;99.90;;;;;;5014993;28;20417;-91
2022/01/12 00:41:50;;;;;;;116.72;38.53;;;3.10;99.90;;;;;;5021105;28;20076;-86
2022/01/12 00:44:23;;;;;;;119.07;36.72;;;3.20;99.90;;;;;;5019170;28;20030;-85
2022/01/12 00:46:51;;;;;;;147.13;39.45;;;3.10;99.90;;;;;;5020983;28;20057;-88
2022/01/12 00:49:17;;;;;;;146.27;38.50;;;3.20;99.90;;;;;;5008773;28;20041;-83
2022/01/12 00:51:44;;;;;;;104.75;35.85;;;;;;;;;;5002339;28;20042;-89
2022/01/12 00:54:10;;;;;;;136.43;39.35;;;3.30;99.90;;;;;;5030957;28;20490;-83
2022/01/12 00:56:36;;;;;;;150.43;40.35;;;3.20;99.90;;;;;;5005578;28;20128;-83
2022/01/12 00:59:03;;;;;;;123.32;39.42;;;3.20;99.90;;;;;;5016341;28;20125;-82
2022/01/12 01:01:29;;;;;;;140.07;37.42;;;3.10;99.90;;;;;;5032693;28;20498;-83
2022/01/12 01:03:55;;;;;;;166.63;41.08;;;3.20;99.90;;;;;;5005163;28;20080;-88
2022/01/12 01:06:22;;;;;;;159.60;41.10;;;3.10;99.90;;;;;;5003376;28;20129;-84
2022/01/12 01:08:51;;;;;;;138.73;38.97;;;3.00;99.90;;;;;;5020373;28;20052;-84
2022/01/12 01:11:17;;;;;;;168.27;40.35;;;3.20;99.90;;;;;;5026208;28;20551;-83
2022/01/12 01:13:57;;;;;;;106.22;37.53;;;3.20;99.90;;;;;;5017156;28;20045;-84
2022/01/12 01:27:06;;;;;;;153.30;40.03;;;3.30;99.90;;;;;;5030407;28;20089;-87
2022/01/12 01:29:31;;;;;;;141.90;39.15;;;3.30;99.90;;;;;;5006269;28;20045;-84
2022/01/12 01:31:57;;;;;;;181.90;42.72;;;3.30;99.90;;;;;;5020917;28;20377;-85
2022/01/12 01:34:23;;;;;;;132.18;38.80;;;3.20;99.90;;;;;;5022421;28;20038;-87
2022/01/12 01:36:54;;;;;;;351.45;53.88;;;3.20;99.90;;;;;;5014029;28;20490;-87
2022/01/12 01:39:25;;;;;;;241.00;45.00;;;3.30;99.90;;;;;;5020542;28;20045;-87
2022/01/12 01:42:00;;;;;;;188.93;42.35;;;3.30;99.90;;;;;;5016306;28;20099;-86
2022/01/12 01:55:09;;;;;;;205.45;43.60;;;3.40;99.90;;;;;;5038425;28;20049;-87
2022/01/12 01:57:35;;;;;;;324.83;50.25;;;3.40;99.90;;;;;;5017881;28;20561;-87
2022/01/12 02:00:05;;;;;;;282.98;47.17;;;3.20;99.90;;;;;;5029181;28;20099;-87
2022/01/12 02:02:31;;;;;;;328.38;50.60;;;3.40;99.90;;;;;;5022007;28;20081;-88
2022/01/12 02:04:56;;;;;;;223.63;44.65;;;3.40;99.90;;;;;;5028552;28;20053;-89
2022/01/12 02:07:23;;;;;;;241.65;43.78;;;3.40;99.90;;;;;;5020449;28;20049;-83
2022/01/12 02:09:48;;;;;;;321.92;47.95;;;3.50;99.90;;;;;;5020989;28;20046;-84
2022/01/12 02:12:14;;;;;;;237.30;43.90;;;5.40;99.90;;;;;;5044533;28;20083;-83
2022/01/12 02:14:40;;;;;;;361.95;48.80;;;3.50;99.90;;;;;;5006848;28;20048;-85
2022/01/12 02:17:13;;;;;;;158.80;38.10;;;3.50;99.90;;;;;;5007435;28;20512;-86
2022/01/12 02:36:13;;;;;;;161.80;38.38;;;4.00;99.90;;;;;;5048171;28;20100;-84
2022/01/12 02:41:24;;;;;;;73.85;29.10;;;3.60;99.90;;;;;;5027023;28;20042;-87
2022/01/12 02:54:41;;;;;;;75.65;28.73;;;3.50;99.90;;;;;;5021155;28;20320;-87
2022/01/12 02:57:07;;;;;;;65.03;27.80;;;3.50;99.90;;;;;;5013218;28;20042;-84
2022/01/12 02:59:33;;;;;;;74.68;29.00;;;3.50;99.90;;;;;;5034631;28;20059;-83
2022/01/12 03:04:35;;;;;;;109.93;33.58;;;3.50;99.90;;;;;;5022678;28;20047;-87
2022/01/12 03:07:07;;;;;;;112.47;33.08;;;3.30;99.90;;;;;;5020175;28;20049;-84
2022/01/12 03:09:32;;;;;;;248.88;39.17;;;3.50;99.90;;;;;;5034891;28;20056;-88
2022/01/12 03:11:58;;;;;;;195.38;39.42;;;3.40;99.90;;;;;;5025078;28;20057;-88
2022/01/12 03:14:23;;;;;;;345.05;41.38;;;3.70;99.90;;;;;;5031944;28;20046;-88
2022/01/12 03:16:49;;;;;;;131.10;32.70;;;3.40;99.90;;;;;;5029417;28;20128;-87
2022/01/12 03:19:15;;;;;;;194.70;36.83;;;3.60;99.90;;;;;;5018200;28;20133;-90
2022/01/12 03:21:40;;;;;;;172.90;35.58;;;3.30;99.90;;;;;;5041078;28;20046;-88
2022/01/12 03:24:07;;;;;;;290.10;39.47;;;3.50;99.90;;;;;;5023242;28;20050;-88
2022/01/12 03:26:34;;;;;;;163.52;34.28;;;3.40;99.90;;;;;;5004558;28;20047;-88
2022/01/12 03:29:00;;;;;;;321.48;42.90;;;3.30;99.90;;;;;;5007386;28;20056;-85
2022/01/12 03:31:30;;;;;;;253.23;35.38;;;3.30;99.90;;;;;;5004286;28;20042;-88
2022/01/12 03:34:05;;;;;;;322.70;39.08;;;3.40;99.90;;;;;;5031275;28;20077;-89
2022/01/12 03:36:42;;;;;;;333.38;40.17;;;3.40;99.90;;;;;;5025562;28;20050;-86
2022/01/12 03:39:13;;;;;;;313.77;34.60;;;3.50;99.90;;;;;;5010879;28;20060;-87
2022/01/12 03:41:42;;;;;;;169.45;29.02;;;3.10;99.90;;;;;;5043236;28;20045;-88
2022/01/12 03:44:10;;;;;;;115.05;26.65;;;3.30;99.90;;;;;;5025044;28;20511;-88
2022/01/12 03:46:48;;;;;;;229.48;31.25;;;3.10;99.90;;;;;;5038829;28;20132;-87
2022/01/12 03:49:15;;;;;;;112.32;24.25;;;3.20;99.90;;;;;;5017409;28;20038;-88
2022/01/12 03:51:42;;;;;;;43.83;22.00;;;3.30;99.90;;;;;;5020260;28;20041;-85
2022/01/12 03:54:07;;;;;;;243.93;27.92;;;3.10;99.90;;;;;;5021311;28;20110;-88
2022/01/12 03:56:33;;;;;;;114.13;23.13;;;3.10;99.90;;;;;;5001725;28;20485;-88
2022/01/12 03:58:59;;;;;;;151.63;23.13;;;3.20;99.90;;;;;;5001742;28;20404;-82
2022/01/12 04:01:25;;;;;;;81.70;21.10;;;5.40;99.90;;;;;;5022390;28;20033;-83
2022/01/12 04:04:01;;;;;;;76.55;20.35;;;3.50;99.90;;;;;;5019239;28;20524;-86
2022/01/12 04:09:31;;;;;;;36.58;15.18;;;3.10;99.90;;;;;;4983062;28;20054;-85
2022/01/12 04:11:56;;;;;;;38.25;17.83;;;3.10;99.90;;;;;;4981934;28;20044;-81
2022/01/12 04:14:22;;;;;;;183.75;22.08;;;3.50;99.90;;;;;;5007300;28;20095;-84
2022/01/12 04:16:48;;;;;;;80.32;17.45;;;3.30;99.90;;;;;;5021491;28;20374;-85
2022/01/12 04:19:13;;;;;;;27.15;15.30;;;3.00;99.90;;;;;;5016788;28;20041;-87
2022/01/12 04:21:46;;;;;;;171.32;18.15;;;3.00;99.90;;;;;;5001710;28;20515;-81
2022/01/12 04:24:13;;;;;;;161.93;16.52;;;3.30;99.90;;;;;;5017859;28;20048;-87
2022/01/12 04:26:39;;;;;;;67.53;15.20;;;2.90;99.90;;;;;;5019862;28;20077;-85
2022/01/12 04:29:07;;;;;;;113.72;16.38;;;2.70;99.90;;;;;;4999144;28;20125;-87
2022/01/12 04:31:36;;;;;;;162.25;16.13;;;2.70;99.90;;;;;;5019859;28;20111;-84
2022/01/12 04:34:04;;;;;;;46.45;13.20;;;2.60;99.90;;;;;;5020144;28;20066;-86
2022/01/12 04:36:30;;;;;;;23.80;12.32;;;2.60;99.90;;;;;;5018517;28;20041;-90
2022/01/12 04:38:56;;;;;;;49.10;12.43;;;2.60;99.90;;;;;;5016476;28;20042;-82
2022/01/12 04:41:24;;;;;;;18.25;10.77;;;2.70;99.90;;;;;;5040198;28;20041;-82
2022/01/12 04:43:51;;;;;;;33.72;11.80;;;2.60;99.90;;;;;;5020468;28;20069;-83
2022/01/12 04:46:30;;;;;;;48.15;11.48;;;2.60;99.90;;;;;;5040905;28;20038;-88
2022/01/12 04:51:42;;;;;;;34.22;11.45;;;2.60;99.90;;;;;;5000866;28;20409;-86
2022/01/12 04:54:07;;;;;;;45.92;11.90;;;3.00;99.90;;;;;;5022401;28;20037;-87
2022/01/12 04:56:33;;;;;;;55.67;12.40;;;2.50;99.90;;;;;;5015941;28;20081;-88
2022/01/12 04:58:59;;;;;;;28.77;11.15;;;3.10;99.90;;;;;;5019086;28;20037;-87
2022/01/12 05:01:27;;;;;;;23.30;10.90;;;2.60;99.90;;;;;;5027549;28;20378;-88
2022/01/12 05:06:45;;;;;;;151.32;16.58;;;2.30;99.90;;;;;;5024872;28;20418;-90
2022/01/12 05:14:23;;;;;;;121.78;12.25;;;2.30;99.90;;;;;;5027164;28;20049;-89
2022/01/12 05:16:50;;;;;;;152.00;14.70;;;2.00;99.90;;;;;;5026612;28;20094;-87
2022/01/12 05:19:15;;;;;;;23.73;10.07;;;1.90;99.90;;;;;;5006141;28;20041;-85
2022/01/12 05:21:41;;;;;;;15.35;10.05;;;2.00;99.90;;;;;;5027253;28;20056;-87
2022/01/12 05:24:07;;;;;;;16.00;10.23;;;2.20;99.90;;;;;;5024803;28;20069;-82
2022/01/12 05:26:36;;;;;;;12.55;9.93;;;1.60;99.90;;;;;;5042036;28;20076;-86
2022/01/12 05:29:03;;;;;;;21.63;10.10;;;2.00;99.90;;;;;;5022872;28;20529;-88
2022/01/12 05:31:28;;;;;;;20.38;9.88;;;2.00;99.90;;;;;;5023820;28;20042;-86
2022/01/12 05:33:58;;;;;;;111.28;14.32;;;2.00;99.90;;;;;;5027660;28;20041;-86
2022/01/12 05:36:24;;;;;;;118.93;11.98;;;1.80;99.90;;;;;;5027061;28;20596;-86
2022/01/12 05:38:50;;;;;;;60.28;9.88;;;2.40;99.90;;;;;;5004275;28;20076;-85
2022/01/12 05:41:16;;;;;;;89.45;8.95;;;0.60;99.90;;;;;;5011249;28;20042;-88
2022/01/12 05:43:44;;;;;;;69.22;9.85;;;1.70;99.90;;;;;;5011557;28;20034;-87
2022/01/12 05:46:12;;;;;;;91.78;11.70;;;1.60;99.90;;;;;;5011587;28;20432;-80
2022/01/12 05:51:24;;;;;;;127.90;12.55;;;1.70;99.90;;;;;;5028426;28;20080;-84
2022/01/12 05:53:50;;;;;;;121.65;11.65;;;1.50;99.90;;;;;;5028610;28;20199;-81
2022/01/12 05:56:16;;;;;;;60.80;8.60;;;0.50;99.90;;;;;;5023929;28;20606;-88
2022/01/12 05:58:42;;;;;;;224.00;16.95;;;2.70;99.90;;;;;;5019973;28;20045;-86
2022/01/12 06:01:07;;;;;;;106.35;10.73;;;1.40;99.90;;;;;;5027993;28;20132;-83
2022/01/12 06:03:33;;;;;;;97.63;13.40;;;1.50;99.90;;;;;;5026959;28;20050;-85
2022/01/12 06:05:59;;;;;;;89.93;12.15;;;1.50;99.90;;;;;;5007377;28;20052;-82
2022/01/12 06:08:24;;;;;;;17.23;8.30;;;1.40;99.90;;;;;;5025442;28;20054;-85
2022/01/12 06:10:50;;;;;;;20.95;8.27;;;1.40;99.90;;;;;;5017701;28;20144;-86
2022/01/12 06:13:16;;;;;;;26.35;7.53;;;1.40;99.90;;;;;;5013473;28;20581;-84
2022/01/12 06:15:41;;;;;;;25.10;7.03;;;1.60;99.90;;;;;;5035398;28;20102;-85
2022/01/12 06:18:07;;;;;;;8.13;6.88;;;1.60;99.90;;;;;;4998181;28;20058;-89
2022/01/12 06:20:35;;;;;;;14.95;7.75;;;1.40;99.90;;;;;;5022155;28;20405;-88
2022/01/12 06:23:01;;;;;;;96.65;10.23;;;1.70;99.90;;;;;;5025928;28;20038;-89
2022/01/12 06:25:27;;;;;;;24.95;7.78;;;2.40;99.90;;;;;;5021565;28;20051;-85
2022/01/12 06:27:57;;;;;;;28.45;8.48;;;2.90;99.90;;;;;;5017817;28;20053;-82
2022/01/12 06:32:58;;;;;;;19.10;7.85;;;1.60;99.90;;;;;;5021958;28;20042;-87
2022/01/12 06:35:25;;;;;;;11.18;7.10;;;1.60;99.90;;;;;;5027333;28;20425;-86
2022/01/12 06:37:51;;;;;;;37.10;8.02;;;1.50;99.90;;;;;;5028423;28;20046;-83
2022/01/12 06:40:20;;;;;;;32.10;8.00;;;1.60;99.90;;;;;;5022297;28;20048;-83
2022/01/12 06:42:46;;;;;;;60.47;9.35;;;1.60;99.90;;;;;;5010739;28;20048;-85
2022/01/12 06:45:12;;;;;;;104.18;11.75;;;1.50;99.90;;;;;;5031268;28;20045;-82
2022/01/12 06:47:38;;;;;;;108.45;10.57;;;1.40;99.90;;;;;;5032025;28;20081;-86
2022/01/12 06:50:05;;;;;;;106.82;11.35;;;1.40;99.90;;;;;;5006940;28;20132;-83
2022/01/12 06:52:31;;;;;;;126.30;11.40;;;1.50;99.90;;;;;;5031013;28;20115;-85
2022/01/12 06:54:57;;;;;;;46.33;8.68;;;1.50;99.90;;;;;;5013047;28;20037;-85
2022/01/12 06:57:22;;;;;;;47.65;9.00;;;1.30;99.90;;;;;;5031331;28;20041;-85
2022/01/12 06:59:48;;;;;;;240.65;16.38;;;1.70;99.90;;;;;;5025236;28;20486;-85
2022/01/12 07:02:13;;;;;;;18.42;5.80;;;1.30;99.90;;;;;;5030062;28;20041;-85
2022/01/12 07:04:39;;;;;;;249.85;15.40;;;1.40;99.90;;;;;;5031076;28;20102;-88
2022/01/12 07:07:05;;;;;;;276.42;116.00;;;1.40;99.90;;;;;;5031851;28;20029;-82
2022/01/12 07:09:30;;;;;;;165.65;11.52;;;1.20;99.90;;;;;;5025993;28;20578;-87
2022/01/12 07:11:56;;;;;;;103.28;11.30;;;1.40;99.90;;;;;;5010920;28;20482;-81
2022/01/12 07:14:22;;;;;;;155.82;11.13;;;1.40;99.90;;;;;;5028872;28;20049;-84
2022/01/12 07:16:47;;;;;;;99.03;8.70;;;1.30;99.90;;;;;;5012687;28;20099;-85
2022/01/12 07:19:13;;;;;;;119.20;9.27;;;1.30;99.90;;;;;;5024602;28;20103;-83
2022/01/12 07:21:39;;;;;;;86.53;9.75;;;1.60;99.90;;;;;;5031629;28;20057;-81
2022/01/12 07:24:05;;;;;;;66.03;9.30;;;1.20;99.90;;;;;;5031173;28;20045;-82
2022/01/12 07:26:30;;;;;;;75.43;8.75;;;1.30;99.90;;;;;;5027717;28;20045;-81
2022/01/12 07:28:56;;;;;;;88.75;8.98;;;1.30;99.90;;;;;;5031168;28;20527;-85
2022/01/12 07:31:23;;;;;;;137.45;12.20;;;1.30;99.90;;;;;;5030999;28;20047;-84
2022/01/12 07:33:50;;;;;;;113.60;10.30;;;1.30;99.90;;;;;;5025751;28;20532;-82
2022/01/12 07:36:16;;;;;;;54.92;8.43;;;1.20;99.90;;;;;;5030673;28;20150;-82
2022/01/12 07:38:41;;;;;;;18.05;6.18;;;1.30;99.90;;;;;;5028046;28;20485;-82
2022/01/12 07:41:07;;;;;;;51.65;8.40;;;1.20;99.90;;;;;;5029767;28;20079;-82
2022/01/12 07:43:33;;;;;;;250.48;148.98;;;1.30;99.90;;;;;;5011111;28;20050;-82
2022/01/12 07:45:58;;;;;;;47.25;27.73;;;1.50;99.90;;;;;;5023817;28;20124;-85
2022/01/12 07:48:24;;;;;;;56.67;8.25;;;1.60;99.90;;;;;;5030784;28;20095;-85
2022/01/12 07:50:49;;;;;;;75.70;10.52;;;1.40;99.90;;;;;;5030517;28;20044;-82
2022/01/12 07:53:15;;;;;;;55.25;8.45;;;1.30;99.90;;;;;;5012685;28;20056;-82
2022/01/12 07:55:41;;;;;;;21.95;6.88;;;1.30;99.90;;;;;;5025290;28;20053;-83
2022/01/12 07:58:06;;;;;;;39.17;8.25;;;1.20;99.90;;;;;;5007327;28;20050;-81
2022/01/12 08:00:45;;;;;;;30.05;7.18;;;1.10;99.90;;;;;;5025682;28;20045;-84
2022/01/12 08:03:12;;;;;;;33.35;7.20;;;1.10;99.90;;;;;;4971317;28;20409;-85
2022/01/12 08:05:38;;;;;;;12.23;6.88;;;0.80;99.90;;;;;;4988560;28;20436;-80
2022/01/12 08:08:04;;;;;;;36.25;6.97;;;1.30;99.90;;;;;;5005101;28;20049;-84
2022/01/12 08:10:30;;;;;;;59.40;9.13;;;1.30;99.90;;;;;;4670683;28;10000013;-83
2022/01/12 08:12:55;;;;;;;48.25;8.55;;;1.20;99.90;;;;;;5021833;28;20920;-83
2022/01/12 08:15:21;;;;;;;104.30;11.90;;;1.20;99.90;;;;;;5003139;28;20041;-88
2022/01/12 08:17:46;;;;;;;104.53;11.00;;;1.10;99.90;;;;;;5005865;28;20144;-86
2022/01/12 08:20:15;;;;;;;54.03;8.93;;;1.50;99.90;;;;;;5023888;28;20065;-81
2022/01/12 08:22:41;;;;;;;85.97;10.90;;;1.10;99.90;;;;;;5040804;28;20099;-81
2022/01/12 08:25:09;;;;;;;87.35;8.82;;;1.70;99.90;;;;;;5037625;28;20045;-89
2022/01/12 08:27:35;;;;;;;91.07;10.02;;;1.20;99.90;;;;;;5021371;28;20049;-88
2022/01/12 08:30:02;;;;;;;101.30;8.77;;;1.20;99.90;;;;;;5020038;28;20045;-81
2022/01/12 08:32:29;;;;;;;69.63;8.32;;;1.20;99.90;;;;;;5021174;28;20046;-83
2022/01/12 08:34:55;;;;;;;97.38;9.90;;;1.40;99.90;;;;;;5024529;28;20462;-84
2022/01/12 08:37:21;;;;;;;121.22;12.30;;;1.80;99.90;;;;;;5001515;28;20115;-83
2022/01/12 08:39:47;;;;;;;19.77;6.18;;;1.10;99.90;;;;;;5018258;28;20741;-86
2022/01/12 08:42:12;;;;;;;90.95;7.38;;;1.20;99.90;;;;;;5016557;28;20045;-84
2022/01/12 08:44:38;;;;;;;44.10;7.20;;;1.20;99.90;;;;;;5003243;28;20049;-82
2022/01/12 08:47:05;;;;;;;15.05;5.93;;;1.10;99.90;;;;;;5020169;28;20080;-85
2022/01/12 08:49:30;;;;;;;38.72;6.47;;;1.20;99.90;;;;;;5025235;28;20060;-86
2022/01/12 08:51:56;;;;;;;48.50;7.75;;;1.20;99.90;;;;;;5021825;28;20128;-83
2022/01/12 08:54:22;;;;;;;36.78;7.03;;;1.10;99.90;;;;;;5022558;28;20045;-82
2022/01/12 08:56:47;;;;;;;32.90;6.20;;;1.20;99.90;;;;;;5019998;28;20572;-84
2022/01/12 08:59:13;;;;;;;80.80;8.85;;;1.30;99.90;;;;;;5020065;28;20031;-88
2022/01/12 09:01:39;;;;;;;10.95;5.63;;;1.20;99.90;;;;;;5023976;28;20049;-90
2022/01/12 09:04:05;;;;;;;51.40;7.30;;;1.10;99.90;;;;;;5022140;28;20038;-89
2022/01/12 09:06:31;;;;;;;45.15;7.22;;;1.20;99.90;;;;;;5025086;28;20052;-87
2022/01/12 09:08:57;;;;;;;40.45;7.82;;;1.20;99.90;;;;;;5003255;28;20038;-85
2022/01/12 09:11:23;;;;;;;44.63;6.32;;;1.30;99.90;;;;;;5011989;28;20057;-87
2022/01/12 09:13:48;;;;;;;54.10;6.18;;;1.30;99.90;;;;;;5025363;28;20422;-83
2022/01/12 09:16:14;;;;;;;19.10;5.93;;;1.20;99.90;;;;;;5001038;28;20046;-85
2022/01/12 09:18:40;;;;;;;27.08;5.28;;;1.40;99.90;;;;;;5022644;28;20045;-85
2022/01/12 09:21:07;;;;;;;26.85;6.05;;;1.50;99.90;;;;;;5020479;28;20056;-89
2022/01/12 09:23:33;;;;;;;48.08;6.97;;;1.40;99.90;;;;;;4997431;28;20046;-89
2022/01/12 09:25:59;;;;;;;42.25;7.38;;;1.70;99.90;;;;;;5025339;28;20145;-84
2022/01/12 09:28:24;;;;;;;44.97;7.07;;;1.40;99.90;;;;;;5019026;28;20120;-85
2022/01/12 09:30:53;;;;;;;41.42;7.40;;;1.60;99.90;;;;;;5016553;28;20046;-84
2022/01/12 09:33:19;;;;;;;62.88;7.45;;;1.70;99.90;;;;;;5027713;28;20042;-90
2022/01/12 09:35:47;;;;;;;25.73;6.72;;;1.60;99.90;;;;;;5013781;28;20917;-88
2022/01/12 09:38:13;;;;;;;31.60;6.70;;;1.70;99.90;;;;;;5022697;28;20459;-84
2022/01/12 09:40:41;;;;;;;43.47;9.98;;;1.80;99.90;;;;;;5016258;28;20124;-89
2022/01/12 09:43:07;;;;;;;549.05;314.10;;;1.70;99.90;;;;;;5025590;28;20492;-88
2022/01/12 09:45:33;;;;;;;121.07;12.38;;;1.80;99.90;;;;;;5013841;28;20057;-88
2022/01/12 09:47:59;;;;;;;150.75;12.05;;;4.10;99.90;;;;;;5020854;28;20029;-82
2022/01/12 09:50:25;;;;;;;155.20;12.90;;;1.80;99.90;;;;;;5020919;28;20481;-90
2022/01/12 09:52:51;;;;;;;165.98;11.40;;;1.90;99.90;;;;;;5025722;28;20075;-81
2022/01/12 09:55:19;;;;;;;79.00;9.93;;;2.00;99.90;;;;;;5025552;28;20054;-88
2022/01/12 09:57:44;;;;;;;179.82;10.75;;;1.80;99.90;;;;;;5022111;28;20055;-88
2022/01/12 10:00:13;;;;;;;341.92;18.02;;;1.90;99.90;;;;;;5021248;28;20136;-81
2022/01/12 10:02:41;;;;;;;94.35;9.55;;;2.10;99.90;;;;;;5017337;28;20042;-89
2022/01/12 10:05:08;;;;;;;271.35;17.55;;;2.10;99.90;;;;;;5023944;28;20436;-87
2022/01/12 10:07:34;;;;;;;150.18;11.30;;;2.20;99.90;;;;;;5037819;28;20069;-84
2022/01/12 10:10:15;;;;;;;220.88;16.10;;;2.10;99.90;;;;;;5006896;28;20511;-82
2022/01/12 10:12:56;;;;;;;237.32;16.60;;;2.20;99.90;;;;;;5017812;28;20133;-83
2022/01/12 10:15:28;;;;;;;191.45;13.25;;;2.40;99.90;;;;;;5004825;28;20041;-89
2022/01/12 10:18:01;;;;;;;209.73;14.38;;;2.30;99.90;;;;;;5019340;28;20072;-82
2022/01/12 10:20:27;;;;;;;319.25;17.55;;;2.40;99.90;;;;;;5026077;28;20141;-86
2022/01/12 10:23:09;;;;;;;232.20;12.88;;;2.50;99.90;;;;;;5014482;28;20581;-80
2022/01/12 10:25:36;;;;;;;253.20;15.32;;;2.50;99.90;;;;;;5022569;28;20070;-83
2022/01/12 10:28:21;;;;;;;212.80;13.75;;;2.70;99.90;;;;;;5025102;28;20048;-85
2022/01/12 10:30:51;;;;;;;;;;;2.70;99.90;;;;;;5038602;28;20050;-84
2022/01/12 10:33:16;;;;;;;139.73;10.85;;;2.80;99.90;;;;;;5002933;28;19922;-89
2022/01/12 10:35:42;;;;;;;207.93;12.90;;;2.80;99.90;;;;;;5020297;28;20052;-83
2022/01/12 10:38:13;;;;;;;216.13;13.82;;;2.80;99.90;;;;;;5009089;28;20048;-89
2022/01/12 10:40:53;;;;;;;141.23;11.95;;;2.80;99.90;;;;;;5034003;28;20046;-84
2022/01/12 10:43:34;;;;;;;211.98;12.93;;;3.60;99.90;;;;;;4671196;28;10000056;-83
2022/01/12 10:46:05;;;;;;;162.32;14.10;;;3.00;99.90;;;;;;5003474;28;20042;-88
2022/01/12 10:48:51;;;;;;;182.48;12.27;;;3.00;99.90;;;;;;5019085;28;20053;-84
2022/01/12 10:51:22;;;;;;;127.60;10.45;;;3.10;99.90;;;;;;5023231;28;20041;-86
2022/01/12 10:53:50;;;;;;;81.25;8.57;;;3.00;99.90;;;;;;5029241;28;20095;-83
2022/01/12 10:56:18;;;;;;;94.05;8.88;;;3.20;99.90;;;;;;5023922;28;20452;-83
2022/01/12 10:58:46;;;;;;;39.17;6.95;;;3.00;99.90;;;;;;5035871;28;20059;-88
2022/01/12 11:01:15;;;;;;;101.47;10.32;;;3.00;99.90;;;;;;4994535;28;20046;-83
2022/01/12 11:03:40;;;;;;;89.43;8.30;;;3.30;99.90;;;;;;5025196;28;20455;-87
2022/01/12 11:06:07;;;;;;;58.83;9.00;;;3.10;99.90;;;;;;5006884;28;20045;-83
2022/01/12 11:08:34;;;;;;;77.75;9.70;;;3.40;99.90;;;;;;5022770;28;20058;-88
2022/01/12 11:11:01;;;;;;;79.72;9.35;;;3.50;99.90;;;;;;5025258;28;20069;-86
2022/01/12 11:13:28;;;;;;;79.90;9.55;;;5.10;99.90;;;;;;5001755;28;20084;-85
2022/01/12 11:15:56;;;;;;;41.20;7.40;;;3.60;99.90;;;;;;5020144;28;20085;-83
2022/01/12 11:18:25;;;;;;;53.83;8.38;;;3.60;99.90;;;;;;5022572;28;20091;-86
2022/01/12 11:20:53;;;;;;;70.03;9.35;;;3.70;99.90;;;;;;5015600;28;20488;-83
2022/01/12 11:23:22;;;;;;;41.03;6.78;;;3.50;99.90;;;;;;5016503;28;20124;-84
2022/01/12 11:25:49;;;;;;;46.17;7.47;;;5.00;99.90;;;;;;5010478;28;20566;-83
2022/01/12 11:28:18;;;;;;;72.20;9.13;;;3.70;99.90;;;;;;4997972;28;20096;-88
2022/01/12 11:30:50;;;;;;;32.72;7.15;;;5.90;99.90;;;;;;4999216;28;20041;-82
2022/01/12 11:33:17;;;;;;;58.65;7.80;;;4.00;99.90;;;;;;5026030;28;20038;-84
2022/01/12 11:35:49;;;;;;;43.83;8.68;;;3.90;99.90;;;;;;5025850;28;20042;-85
2022/01/12 11:38:23;;;;;;;29.17;7.63;;;5.10;99.90;;;;;;5006210;28;20463;-84
2022/01/12 11:40:50;;;;;;;;;;;4.10;99.90;;;;;;5018321;28;20116;-84
2022/01/12 11:43:25;;;;;;;45.97;9.27;;;5.90;99.90;;;;;;5017208;28;19921;-83
2022/01/12 11:46:01;;;;;;;42.30;9.52;;;4.10;99.90;;;;;;5020896;28;20049;-83
2022/01/12 11:48:45;;;;;;;38.58;8.65;;;3.80;99.90;;;;;;5028072;28;20464;-84
2022/01/12 11:51:13;;;;;;;29.27;7.30;;;4.20;99.90;;;;;;5016556;28;20124;-86
2022/01/12 11:53:50;;;;;;;66.93;11.43;;;4.10;99.90;;;;;;5015735;28;20157;-86
2022/01/12 11:56:26;;;;;;;31.48;10.73;;;4.30;99.90;;;;;;5018518;28;20045;-85
2022/01/12 11:59:06;;;;;;;57.15;10.10;;;4.30;99.90;;;;;;5035128;28;20049;-86
2022/01/12 12:01:41;;;;;;;68.75;9.82;;;4.10;99.90;;;;;;5016939;28;20052;-83
2022/01/12 12:04:08;;;;;;;32.50;8.63;;;4.30;99.90;;;;;;5021362;28;20042;-86
2022/01/12 12:06:34;;;;;;;53.95;10.25;;;4.00;99.90;;;;;;5041302;28;20052;-86
2022/01/12 12:09:07;;;;;;;34.33;10.38;;;4.30;99.90;;;;;;5003136;28;20045;-84
2022/01/12 12:11:33;;;;;;;49.55;12.35;;;4.20;99.90;;;;;;5000925;28;20045;-86
2022/01/12 12:14:02;;;;;;;43.95;10.88;;;4.30;99.90;;;;;;5019618;28;20449;-86
2022/01/12 12:16:28;;;;;;;43.22;11.65;;;4.20;99.90;;;;;;5021285;28;20045;-83
2022/01/12 12:18:56;;;;;;;48.92;13.15;;;3.80;99.90;;;;;;5019519;28;20041;-87
2022/01/12 12:21:21;;;;;;;38.10;10.80;;;4.30;99.90;;;;;;5000000;28;20045;-87
2022/01/12 12:23:47;;;;;;;41.83;13.88;;;4.50;99.90;;;;;;5021171;28;20749;-85
2022/01/12 12:26:19;;;;;;;44.97;12.15;;;4.40;99.90;;;;;;5006557;28;20073;-81
2022/01/12 12:29:10;;;;;;;43.75;12.27;;;4.10;99.90;;;;;;5013940;28;20568;-83
2022/01/12 12:31:48;;;;;;;44.55;12.13;;;4.40;99.90;;;;;;5020133;28;20054;-82
2022/01/12 12:34:36;;;;;;;63.10;14.18;;;4.40;99.90;;;;;;5018289;28;20049;-82
2022/01/12 12:37:26;;;;;;;46.37;12.83;;;4.70;99.90;;;;;;5021589;28;20509;-83
2022/01/12 12:40:31;;;;;;;48.53;12.75;;;4.50;99.90;;;;;;4985711;28;20041;-82
2022/01/12 12:43:23;;;;;;;42.08;11.98;;;4.70;99.90;;;;;;5004694;28;20050;-87
2022/01/12 12:46:14;;;;;;;54.88;12.43;;;4.80;99.90;;;;;;5019054;28;20785;-86
2022/01/12 12:48:40;;;;;;;54.67;10.68;;;4.80;99.90;;;;;;5018178;28;20046;-85
2022/01/12 12:51:52;;;;;;;50.25;14.10;;;4.80;99.90;;;;;;5004636;28;20445;-85
2022/01/12 12:54:55;;;;;;;42.55;10.82;;;4.70;99.90;;;;;;5018243;28;20128;-85
2022/01/12 12:57:21;;;;;;;37.53;9.95;;;4.70;99.90;;;;;;5022773;28;20501;-85
2022/01/12 13:00:03;;;;;;;40.22;11.30;;;4.70;99.90;;;;;;5024214;28;20397;-82
2022/01/12 13:02:38;;;;;;;33.28;10.43;;;4.80;99.90;;;;;;4992623;28;20052;-82
2022/01/12 13:05:06;;;;;;;52.72;11.48;;;4.80;99.90;;;;;;5002331;28;20045;-83
2022/01/12 13:07:40;;;;;;;41.58;10.10;;;4.80;99.90;;;;;;5000318;28;20508;-82
2022/01/12 13:10:14;;;;;;;31.17;10.35;;;4.60;99.90;;;;;;5010200;28;20038;-86
2022/01/12 13:12:42;;;;;;;33.55;10.73;;;4.70;99.90;;;;;;5007512;28;20390;-82
2022/01/12 13:15:11;;;;;;;46.50;11.13;;;4.70;99.90;;;;;;5007882;28;20158;-88
2022/01/12 13:17:39;;;;;;;32.33;8.68;;;4.70;99.90;;;;;;5021495;28;20146;-89
2022/01/12 13:22:46;;;;;;;24.23;9.52;;;4.70;99.90;;;;;;5022113;28;20049;-89
2022/01/12 13:25:15;;;;;;;33.85;11.35;;;4.50;99.90;;;;;;5021425;28;20052;-88
2022/01/12 13:27:42;;;;;;;48.70;9.80;;;4.50;99.90;;;;;;5018368;28;20116;-83
2022/01/12 13:30:20;;;;;;;49.25;9.43;;;4.60;99.90;;;;;;5017332;28;20056;-86
2022/01/12 13:32:52;;;;;;;37.25;10.07;;;4.60;99.90;;;;;;5026432;28;20138;-79
2022/01/12 13:35:24;;;;;;;44.38;9.85;;;4.60;99.90;;;;;;5022691;28;20140;-80
2022/01/12 13:37:56;;;;;;;53.72;11.63;;;4.50;99.90;;;;;;4658799;28;10000320;-82
2022/01/12 13:40:22;;;;;;;47.00;10.57;;;4.50;99.90;;;;;;5023785;28;20037;-81
2022/01/12 13:42:54;;;;;;;41.72;10.68;;;4.50;99.90;;;;;;5023535;28;20473;-85
2022/01/12 13:45:27;;;;;;;52.00;11.88;;;4.40;99.90;;;;;;5025859;28;20052;-82
2022/01/12 13:47:58;;;;;;;40.92;10.90;;;4.60;99.90;;;;;;5011028;28;20038;-86
2022/01/12 13:50:31;;;;;;;42.78;12.07;;;4.50;99.90;;;;;;5025524;28;20052;-82
2022/01/12 13:52:57;;;;;;;30.13;11.38;;;4.40;99.90;;;;;;5026631;28;20080;-85
2022/01/12 13:55:23;;;;;;;46.00;11.57;;;4.40;99.90;;;;;;5014101;28;20057;-82
2022/01/12 13:58:15;;;;;;;44.83;12.55;;;4.30;99.90;;;;;;5030513;28;20044;-87
2022/01/12 14:00:41;;;;;;;34.85;11.95;;;4.50;99.90;;;;;;5011206;28;20053;-87
2022/01/12 14:03:16;;;;;;;27.92;10.07;;;4.50;99.90;;;;;;5013098;28;20163;-85
2022/01/12 14:05:42;;;;;;;27.75;11.48;;;4.80;99.90;;;;;;5024813;28;20054;-84
2022/01/12 14:08:15;;;;;;;31.85;11.23;;;4.60;99.90;;;;;;5010866;28;20044;-83
2022/01/12 14:10:45;;;;;;;33.72;12.25;;;4.40;99.90;;;;;;5036931;28;20091;-86